sensor_id;sensor_type;location;lat;lon;timestamp;P1;durP1;ratioP1;P2;durP2;ratioP2
80123;SDS011;69433;48.642;9.142;2023-06-22T00:00:54;10.07;;;7.30;;
80123;SDS011;69433;48.642;9.142;2023-06-22T00:03:21;8.82;;;7.30;;
80123;SDS011;69433;48.642;9.142;2023-06-22T00:05:47;8.38;;;7.28;;
80123;SDS011;69433;48.642;9.142;2023-06-22T00:08:20;8.82;;;7.60;;
80123;SDS011;69433;48.642;9.142;2023-06-22T00:10:46;9.32;;;7.38;;
80123;SDS011;69433;48.642;9.142;2023-06-22T00:13:11;8.40;;;6.97;;
80123;SDS011;69433;48.642;9.142;2023-06-22T00:15:38;9.60;;;7.20;;
80123;SDS011;69433;48.642;9.142;2023-06-22T00:18:12;8.45;;;7.03;;
80123;SDS011;69433;48.642;9.142;2023-06-22T00:20:38;9.25;;;7.30;;
80123;SDS011;69433;48.642;9.142;2023-06-22T00:23:04;8.57;;;7.03;;
80123;SDS011;69433;48.642;9.142;2023-06-22T00:25:36;8.43;;;7.00;;
80123;SDS011;69433;48.642;9.142;2023-06-22T00:28:02;9.38;;;7.25;;
80123;SDS011;69433;48.642;9.142;2023-06-22T00:30:29;9.18;;;7.25;;
80123;SDS011;69433;48.642;9.142;2023-06-22T00:32:55;8.20;;;6.60;;
80123;SDS011;69433;48.642;9.142;2023-06-22T00:35:20;9.70;;;7.40;;
80123;SDS011;69433;48.642;9.142;2023-06-22T00:37:46;8.75;;;6.95;;
80123;SDS011;69433;48.642;9.142;2023-06-22T00:40:18;8.32;;;6.60;;
80123;SDS011;69433;48.642;9.142;2023-06-22T00:42:46;8.63;;;6.80;;
80123;SDS011;69433;48.642;9.142;2023-06-22T00:45:11;8.10;;;6.80;;
80123;SDS011;69433;48.642;9.142;2023-06-22T00:47:37;8.35;;;6.70;;
80123;SDS011;69433;48.642;9.142;2023-06-22T00:50:13;8.32;;;6.47;;
80123;SDS011;69433;48.642;9.142;2023-06-22T00:52:43;8.57;;;7.15;;
80123;SDS011;69433;48.642;9.142;2023-06-22T00:55:11;8.95;;;7.30;;
80123;SDS011;69433;48.642;9.142;2023-06-22T00:57:36;7.70;;;6.65;;
80123;SDS011;69433;48.642;9.142;2023-06-22T01:00:02;9.57;;;7.20;;
80123;SDS011;69433;48.642;9.142;2023-06-22T01:02:41;9.70;;;7.07;;
80123;SDS011;69433;48.642;9.142;2023-06-22T01:05:06;8.98;;;6.50;;
80123;SDS011;69433;48.642;9.142;2023-06-22T01:07:35;8.68;;;6.65;;
80123;SDS011;69433;48.642;9.142;2023-06-22T01:10:21;8.20;;;6.97;;
80123;SDS011;69433;48.642;9.142;2023-06-22T01:12:56;9.25;;;7.20;;
80123;SDS011;69433;48.642;9.142;2023-06-22T01:18:14;8.00;;;6.68;;
80123;SDS011;69433;48.642;9.142;2023-06-22T01:20:43;7.78;;;6.30;;
80123;SDS011;69433;48.642;9.142;2023-06-22T01:26:02;8.10;;;6.20;;
80123;SDS011;69433;48.642;9.142;2023-06-22T01:31:18;8.43;;;6.28;;
80123;SDS011;69433;48.642;9.142;2023-06-22T01:33:46;8.15;;;6.65;;
80123;SDS011;69433;48.642;9.142;2023-06-22T01:36:15;8.48;;;6.72;;
80123;SDS011;69433;48.642;9.142;2023-06-22T01:38:42;7.97;;;6.78;;
80123;SDS011;69433;48.642;9.142;2023-06-22T01:41:09;7.65;;;6.63;;
80123;SDS011;69433;48.642;9.142;2023-06-22T01:43:35;8.30;;;6.68;;
80123;SDS011;69433;48.642;9.142;2023-06-22T01:46:01;7.63;;;6.53;;
80123;SDS011;69433;48.642;9.142;2023-06-22T01:48:27;10.35;;;6.70;;
80123;SDS011;69433;48.642;9.142;2023-06-22T01:51:00;7.30;;;6.38;;
80123;SDS011;69433;48.642;9.142;2023-06-22T01:53:26;9.93;;;6.28;;
80123;SDS011;69433;48.642;9.142;2023-06-22T01:55:51;8.85;;;6.00;;
80123;SDS011;69433;48.642;9.142;2023-06-22T01:58:17;8.10;;;6.35;;
80123;SDS011;69433;48.642;9.142;2023-06-22T02:00:56;7.47;;;6.57;;
80123;SDS011;69433;48.642;9.142;2023-06-22T02:03:32;8.10;;;6.53;;
80123;SDS011;69433;48.642;9.142;2023-06-22T02:06:11;8.07;;;6.43;;
80123;SDS011;69433;48.642;9.142;2023-06-22T02:08:47;8.05;;;6.50;;
80123;SDS011;69433;48.642;9.142;2023-06-22T02:11:16;7.47;;;6.60;;
80123;SDS011;69433;48.642;9.142;2023-06-22T02:13:45;7.97;;;6.00;;
80123;SDS011;69433;48.642;9.142;2023-06-22T02:16:11;8.07;;;6.30;;
80123;SDS011;69433;48.642;9.142;2023-06-22T02:18:37;8.30;;;6.07;;
80123;SDS011;69433;48.642;9.142;2023-06-22T02:21:21;6.97;;;6.20;;
80123;SDS011;69433;48.642;9.142;2023-06-22T02:23:46;8.05;;;6.07;;
80123;SDS011;69433;48.642;9.142;2023-06-22T02:26:12;7.50;;;6.40;;
80123;SDS011;69433;48.642;9.142;2023-06-22T02:28:43;7.72;;;6.65;;
80123;SDS011;69433;48.642;9.142;2023-06-22T02:31:08;9.60;;;6.32;;
80123;SDS011;69433;48.642;9.142;2023-06-22T02:33:33;10.10;;;6.82;;
80123;SDS011;69433;48.642;9.142;2023-06-22T02:35:59;7.30;;;6.00;;
80123;SDS011;69433;48.642;9.142;2023-06-22T02:38:24;8.75;;;6.60;;
80123;SDS011;69433;48.642;9.142;2023-06-22T02:40:57;7.75;;;6.57;;
80123;SDS011;69433;48.642;9.142;2023-06-22T02:43:23;8.35;;;6.55;;
80123;SDS011;69433;48.642;9.142;2023-06-22T02:45:48;7.90;;;6.40;;
80123;SDS011;69433;48.642;9.142;2023-06-22T02:48:13;8.27;;;6.50;;
80123;SDS011;69433;48.642;9.142;2023-06-22T02:50:43;6.20;;;5.50;;
80123;SDS011;69433;48.642;9.142;2023-06-22T02:53:08;6.72;;;5.68;;
80123;SDS011;69433;48.642;9.142;2023-06-22T02:55:33;7.00;;;5.88;;
80123;SDS011;69433;48.642;9.142;2023-06-22T02:57:58;7.38;;;6.05;;
80123;SDS011;69433;48.642;9.142;2023-06-22T03:00:24;7.43;;;6.03;;
80123;SDS011;69433;48.642;9.142;2023-06-22T03:03:01;7.93;;;6.28;;
80123;SDS011;69433;48.642;9.142;2023-06-22T03:05:26;6.32;;;5.60;;
80123;SDS011;69433;48.642;9.142;2023-06-22T03:07:52;7.32;;;6.22;;
80123;SDS011;69433;48.642;9.142;2023-06-22T03:10:17;7.57;;;6.63;;
80123;SDS011;69433;48.642;9.142;2023-06-22T03:12:42;7.90;;;6.20;;
80123;SDS011;69433;48.642;9.142;2023-06-22T03:15:11;7.57;;;6.15;;
80123;SDS011;69433;48.642;9.142;2023-06-22T03:17:37;6.82;;;5.97;;
80123;SDS011;69433;48.642;9.142;2023-06-22T03:20:04;8.20;;;5.88;;
80123;SDS011;69433;48.642;9.142;2023-06-22T03:22:34;7.00;;;6.18;;
80123;SDS011;69433;48.642;9.142;2023-06-22T03:25:00;7.32;;;6.07;;
80123;SDS011;69433;48.642;9.142;2023-06-22T03:27:26;7.90;;;6.10;;
80123;SDS011;69433;48.642;9.142;2023-06-22T03:29:51;7.07;;;5.90;;
80123;SDS011;69433;48.642;9.142;2023-06-22T03:32:16;7.50;;;5.95;;
80123;SDS011;69433;48.642;9.142;2023-06-22T03:34:41;8.43;;;6.20;;
80123;SDS011;69433;48.642;9.142;2023-06-22T03:37:12;7.70;;;6.15;;
80123;SDS011;69433;48.642;9.142;2023-06-22T03:39:38;6.95;;;5.47;;
80123;SDS011;69433;48.642;9.142;2023-06-22T03:42:03;7.30;;;6.40;;
80123;SDS011;69433;48.642;9.142;2023-06-22T03:44:30;6.55;;;5.82;;
80123;SDS011;69433;48.642;9.142;2023-06-22T03:46:55;7.47;;;6.00;;
80123;SDS011;69433;48.642;9.142;2023-06-22T03:49:21;7.40;;;6.15;;
80123;SDS011;69433;48.642;9.142;2023-06-22T03:51:46;7.30;;;5.82;;
80123;SDS011;69433;48.642;9.142;2023-06-22T03:54:17;7.40;;;5.97;;
80123;SDS011;69433;48.642;9.142;2023-06-22T03:56:42;8.13;;;5.57;;
80123;SDS011;69433;48.642;9.142;2023-06-22T03:59:08;7.18;;;6.00;;
80123;SDS011;69433;48.642;9.142;2023-06-22T04:01:33;8.32;;;5.68;;
80123;SDS011;69433;48.642;9.142;2023-06-22T04:03:58;8.55;;;6.13;;
80123;SDS011;69433;48.642;9.142;2023-06-22T04:06:23;6.95;;;5.75;;
80123;SDS011;69433;48.642;9.142;2023-06-22T04:08:49;7.60;;;5.80;;
80123;SDS011;69433;48.642;9.142;2023-06-22T04:11:16;9.18;;;6.05;;
80123;SDS011;69433;48.642;9.142;2023-06-22T04:13:42;7.13;;;6.05;;
80123;SDS011;69433;48.642;9.142;2023-06-22T04:16:08;7.00;;;5.70;;
80123;SDS011;69433;48.642;9.142;2023-06-22T04:18:33;7.10;;;5.85;;
80123;SDS011;69433;48.642;9.142;2023-06-22T04:21:05;6.75;;;6.03;;
80123;SDS011;69433;48.642;9.142;2023-06-22T04:23:30;7.40;;;6.30;;
80123;SDS011;69433;48.642;9.142;2023-06-22T04:25:55;9.55;;;6.07;;
80123;SDS011;69433;48.642;9.142;2023-06-22T04:28:21;7.45;;;5.65;;
80123;SDS011;69433;48.642;9.142;2023-06-22T04:30:50;7.50;;;5.75;;
80123;SDS011;69433;48.642;9.142;2023-06-22T04:33:16;7.70;;;5.80;;
80123;SDS011;69433;48.642;9.142;2023-06-22T04:35:41;6.65;;;5.70;;
80123;SDS011;69433;48.642;9.142;2023-06-22T04:38:09;6.95;;;5.60;;
80123;SDS011;69433;48.642;9.142;2023-06-22T04:40:35;6.93;;;5.60;;
80123;SDS011;69433;48.642;9.142;2023-06-22T04:43:00;9.48;;;6.85;;
80123;SDS011;69433;48.642;9.142;2023-06-22T04:45:27;9.38;;;7.28;;
80123;SDS011;69433;48.642;9.142;2023-06-22T04:48:02;11.90;;;8.25;;
80123;SDS011;69433;48.642;9.142;2023-06-22T04:50:27;11.32;;;8.15;;
80123;SDS011;69433;48.642;9.142;2023-06-22T04:52:53;13.77;;;8.48;;
80123;SDS011;69433;48.642;9.142;2023-06-22T04:55:20;12.65;;;8.63;;
80123;SDS011;69433;48.642;9.142;2023-06-22T04:57:45;10.93;;;8.20;;
80123;SDS011;69433;48.642;9.142;2023-06-22T05:00:17;10.50;;;8.10;;
80123;SDS011;69433;48.642;9.142;2023-06-22T05:02:44;11.95;;;8.75;;
80123;SDS011;69433;48.642;9.142;2023-06-22T05:05:11;10.15;;;8.63;;
80123;SDS011;69433;48.642;9.142;2023-06-22T05:07:49;11.88;;;8.48;;
80123;SDS011;69433;48.642;9.142;2023-06-22T05:10:17;10.90;;;8.27;;
80123;SDS011;69433;48.642;9.142;2023-06-22T05:12:44;11.35;;;7.72;;
80123;SDS011;69433;48.642;9.142;2023-06-22T05:15:09;10.98;;;8.07;;
80123;SDS011;69433;48.642;9.142;2023-06-22T05:17:35;10.65;;;7.50;;
80123;SDS011;69433;48.642;9.142;2023-06-22T05:20:01;10.18;;;8.05;;
80123;SDS011;69433;48.642;9.142;2023-06-22T05:22:31;10.73;;;8.07;;
80123;SDS011;69433;48.642;9.142;2023-06-22T05:24:56;15.52;;;8.30;;
80123;SDS011;69433;48.642;9.142;2023-06-22T05:27:21;11.68;;;8.13;;
80123;SDS011;69433;48.642;9.142;2023-06-22T05:29:46;9.90;;;7.35;;
80123;SDS011;69433;48.642;9.142;2023-06-22T05:32:12;15.23;;;8.75;;
80123;SDS011;69433;48.642;9.142;2023-06-22T05:34:37;10.05;;;7.65;;
80123;SDS011;69433;48.642;9.142;2023-06-22T05:37:03;11.23;;;7.00;;
80123;SDS011;69433;48.642;9.142;2023-06-22T05:39:28;10.05;;;7.28;;
80123;SDS011;69433;48.642;9.142;2023-06-22T05:41:54;11.77;;;7.60;;
80123;SDS011;69433;48.642;9.142;2023-06-22T05:44:19;10.10;;;7.45;;
80123;SDS011;69433;48.642;9.142;2023-06-22T05:46:45;11.18;;;7.38;;
80123;SDS011;69433;48.642;9.142;2023-06-22T05:49:11;11.25;;;7.38;;
80123;SDS011;69433;48.642;9.142;2023-06-22T05:51:37;11.50;;;7.32;;
80123;SDS011;69433;48.642;9.142;2023-06-22T05:54:03;9.32;;;6.97;;
80123;SDS011;69433;48.642;9.142;2023-06-22T05:56:28;10.05;;;6.57;;
80123;SDS011;69433;48.642;9.142;2023-06-22T05:59:00;13.40;;;6.93;;
80123;SDS011;69433;48.642;9.142;2023-06-22T06:01:25;13.73;;;7.10;;
80123;SDS011;69433;48.642;9.142;2023-06-22T06:03:51;10.45;;;6.20;;
80123;SDS011;69433;48.642;9.142;2023-06-22T06:06:17;12.45;;;6.32;;
80123;SDS011;69433;48.642;9.142;2023-06-22T06:08:43;11.77;;;6.60;;
80123;SDS011;69433;48.642;9.142;2023-06-22T06:11:08;10.05;;;6.38;;
80123;SDS011;69433;48.642;9.142;2023-06-22T06:13:33;8.88;;;6.05;;
80123;SDS011;69433;48.642;9.142;2023-06-22T06:15:59;9.57;;;5.97;;
80123;SDS011;69433;48.642;9.142;2023-06-22T06:18:24;10.48;;;6.15;;
80123;SDS011;69433;48.642;9.142;2023-06-22T06:20:50;9.10;;;5.63;;
80123;SDS011;69433;48.642;9.142;2023-06-22T06:23:16;10.40;;;5.60;;
80123;SDS011;69433;48.642;9.142;2023-06-22T06:25:42;9.90;;;6.35;;
80123;SDS011;69433;48.642;9.142;2023-06-22T06:28:08;10.60;;;5.63;;
80123;SDS011;69433;48.642;9.142;2023-06-22T06:30:33;8.93;;;6.30;;
80123;SDS011;69433;48.642;9.142;2023-06-22T06:32:59;9.38;;;5.75;;
80123;SDS011;69433;48.642;9.142;2023-06-22T06:35:25;8.35;;;5.38;;
80123;SDS011;69433;48.642;9.142;2023-06-22T06:37:50;8.80;;;5.78;;
80123;SDS011;69433;48.642;9.142;2023-06-22T06:40:17;9.70;;;5.88;;
80123;SDS011;69433;48.642;9.142;2023-06-22T06:42:44;9.13;;;5.80;;
80123;SDS011;69433;48.642;9.142;2023-06-22T06:45:11;7.72;;;5.20;;
80123;SDS011;69433;48.642;9.142;2023-06-22T06:47:38;9.73;;;5.85;;
80123;SDS011;69433;48.642;9.142;2023-06-22T06:50:04;9.38;;;5.50;;
80123;SDS011;69433;48.642;9.142;2023-06-22T06:52:34;9.95;;;5.85;;
80123;SDS011;69433;48.642;9.142;2023-06-22T06:55:00;9.60;;;5.82;;
80123;SDS011;69433;48.642;9.142;2023-06-22T06:57:25;10.27;;;5.72;;
80123;SDS011;69433;48.642;9.142;2023-06-22T06:59:55;10.68;;;5.97;;
80123;SDS011;69433;48.642;9.142;2023-06-22T07:02:21;7.88;;;5.40;;
80123;SDS011;69433;48.642;9.142;2023-06-22T07:04:47;9.00;;;5.75;;
80123;SDS011;69433;48.642;9.142;2023-06-22T07:07:13;8.27;;;5.57;;
80123;SDS011;69433;48.642;9.142;2023-06-22T07:09:38;8.13;;;5.07;;
80123;SDS011;69433;48.642;9.142;2023-06-22T07:12:03;10.73;;;5.85;;
80123;SDS011;69433;48.642;9.142;2023-06-22T07:14:29;8.75;;;5.68;;
80123;SDS011;69433;48.642;9.142;2023-06-22T07:16:56;8.25;;;5.30;;
80123;SDS011;69433;48.642;9.142;2023-06-22T07:19:25;9.25;;;5.57;;
80123;SDS011;69433;48.642;9.142;2023-06-22T07:21:51;9.20;;;5.72;;
80123;SDS011;69433;48.642;9.142;2023-06-22T07:24:19;9.23;;;5.68;;
80123;SDS011;69433;48.642;9.142;2023-06-22T07:26:46;10.55;;;5.15;;
80123;SDS011;69433;48.642;9.142;2023-06-22T07:29:18;10.18;;;5.70;;
80123;SDS011;69433;48.642;9.142;2023-06-22T07:31:45;10.10;;;5.78;;
80123;SDS011;69433;48.642;9.142;2023-06-22T07:34:11;12.07;;;5.93;;
80123;SDS011;69433;48.642;9.142;2023-06-22T07:36:43;15.70;;;5.38;;
80123;SDS011;69433;48.642;9.142;2023-06-22T07:39:09;10.48;;;5.13;;
80123;SDS011;69433;48.642;9.142;2023-06-22T07:41:34;8.18;;;5.78;;
80123;SDS011;69433;48.642;9.142;2023-06-22T07:43:59;12.38;;;6.43;;
80123;SDS011;69433;48.642;9.142;2023-06-22T07:46:25;11.77;;;5.70;;
80123;SDS011;69433;48.642;9.142;2023-06-22T07:48:50;9.70;;;5.38;;
80123;SDS011;69433;48.642;9.142;2023-06-22T07:51:16;10.07;;;5.47;;
80123;SDS011;69433;48.642;9.142;2023-06-22T07:53:42;12.57;;;7.10;;
80123;SDS011;69433;48.642;9.142;2023-06-22T07:56:10;11.32;;;5.65;;
80123;SDS011;69433;48.642;9.142;2023-06-22T07:58:36;9.40;;;5.70;;
80123;SDS011;69433;48.642;9.142;2023-06-22T08:01:01;9.20;;;5.47;;
80123;SDS011;69433;48.642;9.142;2023-06-22T08:03:28;12.20;;;6.03;;
80123;SDS011;69433;48.642;9.142;2023-06-22T08:05:53;8.40;;;5.22;;
80123;SDS011;69433;48.642;9.142;2023-06-22T08:08:18;8.70;;;5.00;;
80123;SDS011;69433;48.642;9.142;2023-06-22T08:10:44;8.57;;;5.13;;
80123;SDS011;69433;48.642;9.142;2023-06-22T08:13:09;10.32;;;5.82;;
80123;SDS011;69433;48.642;9.142;2023-06-22T08:15:35;10.05;;;5.30;;
80123;SDS011;69433;48.642;9.142;2023-06-22T08:18:00;10.20;;;5.63;;
80123;SDS011;69433;48.642;9.142;2023-06-22T08:20:26;9.50;;;5.82;;
80123;SDS011;69433;48.642;9.142;2023-06-22T08:22:53;10.48;;;5.82;;
80123;SDS011;69433;48.642;9.142;2023-06-22T08:25:19;8.10;;;5.95;;
80123;SDS011;69433;48.642;9.142;2023-06-22T08:27:46;8.88;;;5.47;;
80123;SDS011;69433;48.642;9.142;2023-06-22T08:30:12;11.85;;;5.45;;
80123;SDS011;69433;48.642;9.142;2023-06-22T08:32:38;7.85;;;5.53;;
80123;SDS011;69433;48.642;9.142;2023-06-22T08:35:03;8.88;;;5.70;;
80123;SDS011;69433;48.642;9.142;2023-06-22T08:37:31;9.13;;;5.25;;
80123;SDS011;69433;48.642;9.142;2023-06-22T08:40:00;7.93;;;5.38;;
80123;SDS011;69433;48.642;9.142;2023-06-22T08:42:31;9.15;;;5.38;;
80123;SDS011;69433;48.642;9.142;2023-06-22T08:44:56;7.30;;;5.43;;
80123;SDS011;69433;48.642;9.142;2023-06-22T08:47:22;9.75;;;5.35;;
80123;SDS011;69433;48.642;9.142;2023-06-22T08:49:48;10.43;;;5.88;;
80123;SDS011;69433;48.642;9.142;2023-06-22T08:52:13;8.55;;;5.30;;
80123;SDS011;69433;48.642;9.142;2023-06-22T08:54:47;8.55;;;5.38;;
80123;SDS011;69433;48.642;9.142;2023-06-22T08:57:12;8.70;;;5.80;;
80123;SDS011;69433;48.642;9.142;2023-06-22T08:59:37;8.32;;;5.22;;
80123;SDS011;69433;48.642;9.142;2023-06-22T09:02:03;8.65;;;5.13;;
80123;SDS011;69433;48.642;9.142;2023-06-22T09:04:28;10.50;;;5.38;;
80123;SDS011;69433;48.642;9.142;2023-06-22T09:06:53;9.02;;;4.90;;
80123;SDS011;69433;48.642;9.142;2023-06-22T09:09:20;11.98;;;5.43;;
80123;SDS011;69433;48.642;9.142;2023-06-22T09:11:46;8.88;;;5.25;;
80123;SDS011;69433;48.642;9.142;2023-06-22T09:14:12;7.32;;;5.25;;
80123;SDS011;69433;48.642;9.142;2023-06-22T09:16:37;10.63;;;5.25;;
80123;SDS011;69433;48.642;9.142;2023-06-22T09:19:02;8.15;;;5.45;;
80123;SDS011;69433;48.642;9.142;2023-06-22T09:21:27;9.20;;;5.07;;
80123;SDS011;69433;48.642;9.142;2023-06-22T09:23:53;8.50;;;5.30;;
80123;SDS011;69433;48.642;9.142;2023-06-22T09:26:19;9.82;;;5.22;;
80123;SDS011;69433;48.642;9.142;2023-06-22T09:28:46;6.55;;;4.55;;
80123;SDS011;69433;48.642;9.142;2023-06-22T09:31:12;8.98;;;5.20;;
80123;SDS011;69433;48.642;9.142;2023-06-22T09:33:37;8.50;;;5.25;;
80123;SDS011;69433;48.642;9.142;2023-06-22T09:36:06;13.43;;;5.57;;
80123;SDS011;69433;48.642;9.142;2023-06-22T09:38:34;10.70;;;4.90;;
80123;SDS011;69433;48.642;9.142;2023-06-22T09:41:00;12.63;;;6.35;;
80123;SDS011;69433;48.642;9.142;2023-06-22T09:43:28;11.25;;;5.97;;
80123;SDS011;69433;48.642;9.142;2023-06-22T09:45:53;11.98;;;5.57;;
80123;SDS011;69433;48.642;9.142;2023-06-22T09:48:19;11.00;;;5.40;;
80123;SDS011;69433;48.642;9.142;2023-06-22T09:50:44;10.00;;;5.53;;
80123;SDS011;69433;48.642;9.142;2023-06-22T09:55:51;10.40;;;5.65;;
80123;SDS011;69433;48.642;9.142;2023-06-22T09:58:16;13.50;;;6.07;;
80123;SDS011;69433;48.642;9.142;2023-06-22T10:00:41;8.48;;;5.00;;
80123;SDS011;69433;48.642;9.142;2023-06-22T10:03:07;14.38;;;5.85;;
80123;SDS011;69433;48.642;9.142;2023-06-22T10:05:32;11.93;;;5.18;;
80123;SDS011;69433;48.642;9.142;2023-06-22T10:08:00;8.68;;;5.30;;
80123;SDS011;69433;48.642;9.142;2023-06-22T10:10:25;8.80;;;5.55;;
80123;SDS011;69433;48.642;9.142;2023-06-22T10:12:57;11.52;;;5.50;;
80123;SDS011;69433;48.642;9.142;2023-06-22T10:15:27;10.23;;;5.38;;
80123;SDS011;69433;48.642;9.142;2023-06-22T10:17:53;10.23;;;5.70;;
80123;SDS011;69433;48.642;9.142;2023-06-22T10:20:18;9.80;;;5.32;;
80123;SDS011;69433;48.642;9.142;2023-06-22T10:22:44;12.30;;;5.65;;
80123;SDS011;69433;48.642;9.142;2023-06-22T10:25:10;9.82;;;5.35;;
80123;SDS011;69433;48.642;9.142;2023-06-22T10:27:37;9.82;;;5.10;;
80123;SDS011;69433;48.642;9.142;2023-06-22T10:30:05;11.25;;;5.63;;
80123;SDS011;69433;48.642;9.142;2023-06-22T10:32:32;11.07;;;5.60;;
80123;SDS011;69433;48.642;9.142;2023-06-22T10:34:57;8.48;;;5.25;;
80123;SDS011;69433;48.642;9.142;2023-06-22T10:37:23;10.98;;;5.85;;
80123;SDS011;69433;48.642;9.142;2023-06-22T10:39:48;7.03;;;5.15;;
80123;SDS011;69433;48.642;9.142;2023-06-22T10:42:13;10.10;;;5.97;;
80123;SDS011;69433;48.642;9.142;2023-06-22T10:44:43;8.38;;;5.47;;
80123;SDS011;69433;48.642;9.142;2023-06-22T10:47:10;8.77;;;5.22;;
80123;SDS011;69433;48.642;9.142;2023-06-22T10:49:37;10.10;;;5.40;;
80123;SDS011;69433;48.642;9.142;2023-06-22T10:54:41;12.13;;;5.65;;
80123;SDS011;69433;48.642;9.142;2023-06-22T10:57:06;10.52;;;5.53;;
80123;SDS011;69433;48.642;9.142;2023-06-22T10:59:33;10.68;;;5.40;;
80123;SDS011;69433;48.642;9.142;2023-06-22T11:01:58;11.48;;;6.13;;
80123;SDS011;69433;48.642;9.142;2023-06-22T11:04:23;8.60;;;6.00;;
80123;SDS011;69433;48.642;9.142;2023-06-22T11:06:51;9.15;;;5.32;;
80123;SDS011;69433;48.642;9.142;2023-06-22T11:09:17;11.30;;;5.82;;
80123;SDS011;69433;48.642;9.142;2023-06-22T11:11:45;10.07;;;5.82;;
80123;SDS011;69433;48.642;9.142;2023-06-22T11:14:11;9.40;;;5.32;;
80123;SDS011;69433;48.642;9.142;2023-06-22T11:16:36;10.25;;;5.50;;
80123;SDS011;69433;48.642;9.142;2023-06-22T11:19:02;9.60;;;5.00;;
80123;SDS011;69433;48.642;9.142;2023-06-22T11:21:28;8.57;;;5.75;;
80123;SDS011;69433;48.642;9.142;2023-06-22T11:23:53;9.23;;;5.60;;
80123;SDS011;69433;48.642;9.142;2023-06-22T11:26:18;10.02;;;5.80;;
80123;SDS011;69433;48.642;9.142;2023-06-22T11:28:46;11.90;;;5.60;;
80123;SDS011;69433;48.642;9.142;2023-06-22T11:31:11;8.82;;;5.88;;
80123;SDS011;69433;48.642;9.142;2023-06-22T11:33:36;9.75;;;5.68;;
80123;SDS011;69433;48.642;9.142;2023-06-22T11:36:02;11.98;;;5.70;;
80123;SDS011;69433;48.642;9.142;2023-06-22T11:38:27;9.60;;;5.45;;
80123;SDS011;69433;48.642;9.142;2023-06-22T11:40:52;9.55;;;5.65;;
80123;SDS011;69433;48.642;9.142;2023-06-22T11:43:18;14.05;;;6.05;;
80123;SDS011;69433;48.642;9.142;2023-06-22T11:45:44;7.97;;;5.20;;
80123;SDS011;69433;48.642;9.142;2023-06-22T11:48:09;9.35;;;5.55;;
80123;SDS011;69433;48.642;9.142;2023-06-22T11:50:34;9.50;;;5.72;;
80123;SDS011;69433;48.642;9.142;2023-06-22T11:53:01;13.68;;;5.78;;
80123;SDS011;69433;48.642;9.142;2023-06-22T11:55:27;9.27;;;5.22;;
80123;SDS011;69433;48.642;9.142;2023-06-22T11:57:56;8.93;;;5.40;;
80123;SDS011;69433;48.642;9.142;2023-06-22T12:00:28;8.80;;;5.40;;
80123;SDS011;69433;48.642;9.142;2023-06-22T12:02:57;9.77;;;4.88;;
80123;SDS011;69433;48.642;9.142;2023-06-22T12:05:22;9.90;;;5.43;;
80123;SDS011;69433;48.642;9.142;2023-06-22T12:07:49;9.57;;;5.38;;
80123;SDS011;69433;48.642;9.142;2023-06-22T12:10:14;10.25;;;5.18;;
80123;SDS011;69433;48.642;9.142;2023-06-22T12:12:40;10.55;;;5.35;;
80123;SDS011;69433;48.642;9.142;2023-06-22T12:15:06;8.73;;;5.75;;
80123;SDS011;69433;48.642;9.142;2023-06-22T12:17:34;10.10;;;5.10;;
80123;SDS011;69433;48.642;9.142;2023-06-22T12:19:59;9.45;;;5.20;;
80123;SDS011;69433;48.642;9.142;2023-06-22T12:22:24;12.02;;;4.82;;
80123;SDS011;69433;48.642;9.142;2023-06-22T12:24:50;7.57;;;5.20;;
80123;SDS011;69433;48.642;9.142;2023-06-22T12:27:16;8.32;;;5.38;;
80123;SDS011;69433;48.642;9.142;2023-06-22T12:29:43;6.93;;;4.80;;
80123;SDS011;69433;48.642;9.142;2023-06-22T12:32:16;8.52;;;5.07;;
80123;SDS011;69433;48.642;9.142;2023-06-22T12:34:41;10.30;;;4.65;;
80123;SDS011;69433;48.642;9.142;2023-06-22T12:37:07;10.38;;;4.75;;
80123;SDS011;69433;48.642;9.142;2023-06-22T12:39:33;7.75;;;5.25;;
80123;SDS011;69433;48.642;9.142;2023-06-22T12:41:58;8.32;;;4.80;;
80123;SDS011;69433;48.642;9.142;2023-06-22T12:44:23;8.05;;;4.78;;
80123;SDS011;69433;48.642;9.142;2023-06-22T12:46:50;14.57;;;4.95;;
80123;SDS011;69433;48.642;9.142;2023-06-22T12:49:15;8.07;;;4.72;;
80123;SDS011;69433;48.642;9.142;2023-06-22T12:51:41;10.10;;;4.78;;
80123;SDS011;69433;48.642;9.142;2023-06-22T12:54:13;7.47;;;4.80;;
80123;SDS011;69433;48.642;9.142;2023-06-22T12:56:38;9.40;;;4.50;;
80123;SDS011;69433;48.642;9.142;2023-06-22T12:59:04;9.98;;;4.90;;
80123;SDS011;69433;48.642;9.142;2023-06-22T13:01:32;11.68;;;5.15;;
80123;SDS011;69433;48.642;9.142;2023-06-22T13:03:58;10.50;;;4.55;;
80123;SDS011;69433;48.642;9.142;2023-06-22T13:06:24;7.45;;;4.40;;
80123;SDS011;69433;48.642;9.142;2023-06-22T13:08:49;7.32;;;4.75;;
80123;SDS011;69433;48.642;9.142;2023-06-22T13:11:16;8.15;;;4.85;;
80123;SDS011;69433;48.642;9.142;2023-06-22T13:13:41;71.18;;;51.10;;
80123;SDS011;69433;48.642;9.142;2023-06-22T13:16:06;47.15;;;33.65;;
80123;SDS011;69433;48.642;9.142;2023-06-22T13:18:32;28.17;;;21.05;;
80123;SDS011;69433;48.642;9.142;2023-06-22T13:20:59;28.30;;;19.30;;
80123;SDS011;69433;48.642;9.142;2023-06-22T13:23:25;25.67;;;17.17;;
80123;SDS011;69433;48.642;9.142;2023-06-22T13:25:50;22.58;;;16.75;;
80123;SDS011;69433;48.642;9.142;2023-06-22T13:28:15;24.55;;;16.83;;
80123;SDS011;69433;48.642;9.142;2023-06-22T13:30:43;21.10;;;16.25;;
80123;SDS011;69433;48.642;9.142;2023-06-22T13:33:11;21.25;;;15.82;;
80123;SDS011;69433;48.642;9.142;2023-06-22T13:35:36;22.73;;;15.52;;
80123;SDS011;69433;48.642;9.142;2023-06-22T13:38:02;20.02;;;15.70;;
80123;SDS011;69433;48.642;9.142;2023-06-22T13:40:28;20.15;;;14.90;;
80123;SDS011;69433;48.642;9.142;2023-06-22T13:42:53;20.67;;;15.35;;
80123;SDS011;69433;48.642;9.142;2023-06-22T13:45:18;18.42;;;14.55;;
80123;SDS011;69433;48.642;9.142;2023-06-22T13:47:45;19.35;;;14.57;;
80123;SDS011;69433;48.642;9.142;2023-06-22T13:50:10;19.83;;;14.18;;
80123;SDS011;69433;48.642;9.142;2023-06-22T13:52:38;17.15;;;13.25;;
80123;SDS011;69433;48.642;9.142;2023-06-22T13:55:03;15.38;;;12.15;;
80123;SDS011;69433;48.642;9.142;2023-06-22T13:57:30;18.77;;;13.00;;
80123;SDS011;69433;48.642;9.142;2023-06-22T13:59:55;17.15;;;12.80;;
80123;SDS011;69433;48.642;9.142;2023-06-22T14:02:20;16.77;;;12.23;;
80123;SDS011;69433;48.642;9.142;2023-06-22T14:04:45;16.40;;;11.98;;
80123;SDS011;69433;48.642;9.142;2023-06-22T14:07:12;17.73;;;12.77;;
80123;SDS011;69433;48.642;9.142;2023-06-22T14:09:37;14.70;;;12.27;;
80123;SDS011;69433;48.642;9.142;2023-06-22T14:12:03;17.85;;;12.98;;
80123;SDS011;69433;48.642;9.142;2023-06-22T14:14:32;20.73;;;12.85;;
80123;SDS011;69433;48.642;9.142;2023-06-22T14:16:58;19.55;;;12.75;;
80123;SDS011;69433;48.642;9.142;2023-06-22T14:19:24;47.95;;;25.48;;
80123;SDS011;69433;48.642;9.142;2023-06-22T14:21:49;29.52;;;20.73;;
80123;SDS011;69433;48.642;9.142;2023-06-22T14:24:16;37.90;;;29.73;;
80123;SDS011;69433;48.642;9.142;2023-06-22T14:26:41;18.13;;;13.13;;
80123;SDS011;69433;48.642;9.142;2023-06-22T14:29:06;17.58;;;12.02;;
80123;SDS011;69433;48.642;9.142;2023-06-22T14:31:32;18.95;;;12.50;;
80123;SDS011;69433;48.642;9.142;2023-06-22T14:33:57;18.10;;;11.98;;
80123;SDS011;69433;48.642;9.142;2023-06-22T14:36:23;16.65;;;11.85;;
80123;SDS011;69433;48.642;9.142;2023-06-22T14:38:48;16.40;;;11.18;;
80123;SDS011;69433;48.642;9.142;2023-06-22T14:41:13;20.02;;;11.93;;
80123;SDS011;69433;48.642;9.142;2023-06-22T14:43:48;16.55;;;12.05;;
80123;SDS011;69433;48.642;9.142;2023-06-22T14:46:15;26.55;;;11.80;;
80123;SDS011;69433;48.642;9.142;2023-06-22T14:48:41;17.63;;;11.98;;
80123;SDS011;69433;48.642;9.142;2023-06-22T14:51:07;16.77;;;11.15;;